»·PEaware :: N278L L88-KSBP

N278L :: L88-KSBP

FLIGHT INFORMATION

Flight Status: Arrived
Operator: Privately registered:
United States
More flights under this callsign
Pilot: Anonymous 41595 (41595)
Aircraft: CESSNA 172 SKYHAWK
(C172)
More flights by this aircraft type
Origin: L88 New Cuyama
United States
Destination: KSBP San Luis Co Regl
United States
More flights between these airports :: More routes between these airports
Route:
File this flight plan on PilotEdge
Remarks:
Altitude:
(Current/Filed)
4,500ft
Speed:
(Current/Filed)
100kts
Departed: 01-Oct-22 06:51 PM
Arrived: 01-Oct-22 07:25 PM
Distance/Time
Traveled:
50nm/0:34
Distance/Time
To Go:
Arrived

Flight Plot

Page will automatically refresh every two minutes.


Map Options




Map Legend


Flown Route
Filed Route
Departure Airport
Arrival Airport
Navaid (VOR, NDB)
Fix

Horizontal Profiles

Position Reports

Time Latitude Longitude Heading Altitude Ground
Speed
01-Oct-22 18:39 34.942854 -119.690286 204 2155ft 0kts
01-Oct-22 18:40 34.942854 -119.690286 204 2155ft 0kts
01-Oct-22 18:41 34.942854 -119.690286 204 2155ft 0kts
01-Oct-22 18:41 34.942854 -119.690286 204 2155ft 0kts
01-Oct-22 18:43 34.942854 -119.690286 204 2155ft 0kts
01-Oct-22 18:44 34.942854 -119.690286 204 2155ft 0kts
01-Oct-22 18:45 34.942854 -119.690286 204 2155ft 0kts
01-Oct-22 18:45 34.942854 -119.690286 204 2155ft 0kts
01-Oct-22 18:46 34.942854 -119.690286 204 2155ft 0kts
01-Oct-22 18:48 34.942806 -119.690613 300 2155ft 6kts
01-Oct-22 18:49 34.942781 -119.691158 209 2154ft 0kts
01-Oct-22 18:49 34.942741 -119.691183 205 2154ft 1kts
01-Oct-22 18:50 34.940441 -119.686828 114 2169ft 67kts
01-Oct-22 18:51 34.932276 -119.663601 112 2657ft 79kts
01-Oct-22 18:52 34.945978 -119.667296 296 3126ft 90kts
01-Oct-22 18:53 34.957595 -119.694443 298 3654ft 91kts
01-Oct-22 18:54 34.969676 -119.721868 296 4160ft 92kts
01-Oct-22 18:55 34.981508 -119.750092 296 4445ft 96kts
01-Oct-22 18:56 34.993216 -119.780024 294 4477ft 97kts
01-Oct-22 18:57 35.004145 -119.810284 292 4517ft 97kts
01-Oct-22 18:58 35.014560 -119.840990 291 4519ft 100kts
01-Oct-22 18:59 35.024242 -119.872430 290 4514ft 98kts
01-Oct-22 19:00 35.033714 -119.903905 290 4501ft 98kts
01-Oct-22 19:01 35.044113 -119.934945 292 4487ft 98kts
01-Oct-22 19:02 35.054789 -119.965878 291 4475ft 98kts
01-Oct-22 19:03 35.065646 -119.996681 293 4464ft 98kts
01-Oct-22 19:04 35.075222 -120.028012 287 4454ft 98kts
01-Oct-22 19:05 35.083708 -120.059909 287 4445ft 98kts
01-Oct-22 19:06 35.092168 -120.091709 288 4436ft 98kts
01-Oct-22 19:07 35.100816 -120.123481 288 4429ft 98kts
01-Oct-22 19:08 35.109311 -120.155239 287 4422ft 98kts
01-Oct-22 19:09 35.117578 -120.186963 287 4435ft 98kts
01-Oct-22 19:10 35.125955 -120.218780 287 4466ft 98kts
01-Oct-22 19:11 35.134524 -120.250264 288 4453ft 97kts
01-Oct-22 19:12 35.142350 -120.281783 286 4454ft 97kts
01-Oct-22 19:13 35.149288 -120.313618 287 4451ft 97kts
01-Oct-22 19:14 35.157890 -120.344970 288 4450ft 97kts
01-Oct-22 19:15 35.165910 -120.376341 286 4450ft 97kts
01-Oct-22 19:16 35.174294 -120.407719 287 4450ft 97kts
01-Oct-22 19:17 35.182839 -120.438910 288 4426ft 98kts
01-Oct-22 19:18 35.191318 -120.470470 283 4315ft 98kts
01-Oct-22 19:19 35.195564 -120.503197 276 4004ft 98kts
01-Oct-22 19:20 35.197108 -120.536526 271 3618ft 98kts
01-Oct-22 19:21 35.197061 -120.574388 305 2201ft 131kts
01-Oct-22 19:22 35.217381 -120.606315 306 952ft 107kts
01-Oct-22 19:23 35.230306 -120.628765 306 495ft 65kts
01-Oct-22 19:24 35.237932 -120.641959 307 186ft 25kts
01-Oct-22 19:25 35.239808 -120.644044 34 175ft 0kts
01-Oct-22 19:26 35.239950 -120.643828 75 176ft 6kts
01-Oct-22 19:27 35.239227 -120.642500 138 182ft 6kts
01-Oct-22 19:28 35.238236 -120.640271 103 190ft 2kts
01-Oct-22 19:29 35.238212 -120.640008 112 191ft 0kts
01-Oct-22 19:30 35.238212 -120.640008 112 191ft 0kts
01-Oct-22 19:31 35.238212 -120.640008 112 191ft 0kts
01-Oct-22 19:32 35.238212 -120.640008 112 191ft 0kts
01-Oct-22 19:33 35.238212 -120.640008 112 191ft 0kts
01-Oct-22 19:34 35.238212 -120.640008 112 191ft 0kts
01-Oct-22 19:35 35.238212 -120.640008 112 191ft 0kts

Navigation Log

Ident Type
Flight plan parsing failed, navigation log unavailable